sensor_id;sensor_type;location;lat;lon;timestamp;P1;durP1;ratioP1;P2;durP2;ratioP2
21804;SDS011;11064;47.102;15.452;2022-11-11T05:02:31;34.78;;;20.70;;
21804;SDS011;11064;47.102;15.452;2022-11-11T05:05:15;33.78;;;19.98;;
21804;SDS011;11064;47.102;15.452;2022-11-11T05:07:40;36.35;;;21.35;;
21804;SDS011;11064;47.102;15.452;2022-11-11T05:10:25;38.25;;;21.67;;
21804;SDS011;11064;47.102;15.452;2022-11-11T05:12:50;35.78;;;21.10;;
21804;SDS011;11064;47.102;15.452;2022-11-11T05:15:16;32.85;;;19.67;;
21804;SDS011;11064;47.102;15.452;2022-11-11T05:18:00;34.88;;;20.27;;
21804;SDS011;11064;47.102;15.452;2022-11-11T05:20:50;32.83;;;20.33;;
21804;SDS011;11064;47.102;15.452;2022-11-11T05:23:34;35.72;;;20.10;;
21804;SDS011;11064;47.102;15.452;2022-11-11T05:26:18;29.83;;;18.63;;
21804;SDS011;11064;47.102;15.452;2022-11-11T05:28:44;33.00;;;18.65;;
21804;SDS011;11064;47.102;15.452;2022-11-11T05:31:11;30.55;;;18.70;;
21804;SDS011;11064;47.102;15.452;2022-11-11T05:33:37;30.20;;;18.85;;
21804;SDS011;11064;47.102;15.452;2022-11-11T05:36:02;29.27;;;18.30;;
21804;SDS011;11064;47.102;15.452;2022-11-11T05:38:28;28.35;;;17.98;;
21804;SDS011;11064;47.102;15.452;2022-11-11T05:40:54;30.52;;;18.65;;
21804;SDS011;11064;47.102;15.452;2022-11-11T05:43:20;32.13;;;18.42;;
21804;SDS011;11064;47.102;15.452;2022-11-11T05:45:46;31.67;;;17.73;;
21804;SDS011;11064;47.102;15.452;2022-11-11T05:48:11;31.25;;;19.00;;
21804;SDS011;11064;47.102;15.452;2022-11-11T05:50:37;30.90;;;18.70;;
21804;SDS011;11064;47.102;15.452;2022-11-11T05:53:06;30.15;;;18.33;;
21804;SDS011;11064;47.102;15.452;2022-11-11T05:55:32;31.98;;;19.60;;
21804;SDS011;11064;47.102;15.452;2022-11-11T05:57:58;29.90;;;18.70;;
21804;SDS011;11064;47.102;15.452;2022-11-11T06:00:24;31.75;;;20.13;;
21804;SDS011;11064;47.102;15.452;2022-11-11T06:02:49;31.85;;;18.77;;
21804;SDS011;11064;47.102;15.452;2022-11-11T06:05:15;30.35;;;19.05;;
21804;SDS011;11064;47.102;15.452;2022-11-11T06:07:41;34.75;;;20.45;;
21804;SDS011;11064;47.102;15.452;2022-11-11T06:10:07;30.33;;;18.67;;
21804;SDS011;11064;47.102;15.452;2022-11-11T06:12:52;32.45;;;19.90;;
21804;SDS011;11064;47.102;15.452;2022-11-11T06:15:29;33.40;;;20.48;;
21804;SDS011;11064;47.102;15.452;2022-11-11T06:17:57;32.80;;;19.38;;
21804;SDS011;11064;47.102;15.452;2022-11-11T06:20:23;30.17;;;19.90;;
21804;SDS011;11064;47.102;15.452;2022-11-11T06:22:49;32.97;;;20.40;;
21804;SDS011;11064;47.102;15.452;2022-11-11T06:25:28;34.55;;;20.60;;
21804;SDS011;11064;47.102;15.452;2022-11-11T06:28:14;34.78;;;20.92;;
21804;SDS011;11064;47.102;15.452;2022-11-11T06:30:40;33.90;;;20.92;;
21804;SDS011;11064;47.102;15.452;2022-11-11T06:33:06;35.72;;;21.52;;
21804;SDS011;11064;47.102;15.452;2022-11-11T06:35:34;33.97;;;20.02;;
21804;SDS011;11064;47.102;15.452;2022-11-11T06:38:05;37.63;;;21.38;;
21804;SDS011;11064;47.102;15.452;2022-11-11T06:40:31;34.58;;;21.42;;
21804;SDS011;11064;47.102;15.452;2022-11-11T06:42:58;35.17;;;20.92;;
21804;SDS011;11064;47.102;15.452;2022-11-11T06:45:24;34.38;;;20.30;;
21804;SDS011;11064;47.102;15.452;2022-11-11T06:47:52;32.42;;;20.77;;
21804;SDS011;11064;47.102;15.452;2022-11-11T06:50:18;35.20;;;20.95;;
21804;SDS011;11064;47.102;15.452;2022-11-11T06:52:44;35.38;;;20.63;;
21804;SDS011;11064;47.102;15.452;2022-11-11T06:55:10;31.40;;;20.17;;
21804;SDS011;11064;47.102;15.452;2022-11-11T06:57:37;34.63;;;20.75;;
21804;SDS011;11064;47.102;15.452;2022-11-11T07:00:03;33.03;;;20.67;;
21804;SDS011;11064;47.102;15.452;2022-11-11T07:02:30;34.35;;;20.67;;
21804;SDS011;11064;47.102;15.452;2022-11-11T07:04:57;37.03;;;20.33;;
21804;SDS011;11064;47.102;15.452;2022-11-11T07:07:24;32.13;;;19.92;;
21804;SDS011;11064;47.102;15.452;2022-11-11T07:09:50;34.40;;;20.38;;
21804;SDS011;11064;47.102;15.452;2022-11-11T07:12:16;34.50;;;19.73;;
21804;SDS011;11064;47.102;15.452;2022-11-11T07:14:42;31.75;;;20.02;;
21804;SDS011;11064;47.102;15.452;2022-11-11T07:17:08;28.80;;;18.95;;
21804;SDS011;11064;47.102;15.452;2022-11-11T07:19:34;27.77;;;18.48;;
21804;SDS011;11064;47.102;15.452;2022-11-11T07:22:00;29.75;;;18.65;;
21804;SDS011;11064;47.102;15.452;2022-11-11T07:24:25;27.98;;;18.80;;
21804;SDS011;11064;47.102;15.452;2022-11-11T07:26:51;30.67;;;18.33;;
21804;SDS011;11064;47.102;15.452;2022-11-11T07:29:17;32.28;;;19.58;;
21804;SDS011;11064;47.102;15.452;2022-11-11T07:31:44;38.20;;;23.13;;
21804;SDS011;11064;47.102;15.452;2022-11-11T07:34:10;34.42;;;20.90;;
21804;SDS011;11064;47.102;15.452;2022-11-11T07:36:35;37.00;;;21.80;;
21804;SDS011;11064;47.102;15.452;2022-11-11T07:39:02;32.85;;;20.42;;
21804;SDS011;11064;47.102;15.452;2022-11-11T07:41:28;30.67;;;19.90;;
21804;SDS011;11064;47.102;15.452;2022-11-11T07:43:54;31.38;;;19.30;;
21804;SDS011;11064;47.102;15.452;2022-11-11T07:46:20;29.88;;;18.63;;
21804;SDS011;11064;47.102;15.452;2022-11-11T07:48:46;30.08;;;18.92;;
21804;SDS011;11064;47.102;15.452;2022-11-11T07:51:11;27.90;;;18.67;;
21804;SDS011;11064;47.102;15.452;2022-11-11T07:53:37;26.67;;;18.60;;
21804;SDS011;11064;47.102;15.452;2022-11-11T07:56:03;29.05;;;18.35;;
21804;SDS011;11064;47.102;15.452;2022-11-11T07:58:29;28.48;;;18.48;;
21804;SDS011;11064;47.102;15.452;2022-11-11T08:00:57;28.88;;;18.70;;
21804;SDS011;11064;47.102;15.452;2022-11-11T08:03:24;26.05;;;17.98;;
21804;SDS011;11064;47.102;15.452;2022-11-11T08:05:50;24.98;;;16.73;;
21804;SDS011;11064;47.102;15.452;2022-11-11T08:08:15;27.42;;;17.95;;
21804;SDS011;11064;47.102;15.452;2022-11-11T08:10:41;26.58;;;18.10;;
21804;SDS011;11064;47.102;15.452;2022-11-11T08:13:08;26.77;;;17.88;;
21804;SDS011;11064;47.102;15.452;2022-11-11T08:15:54;29.10;;;17.15;;
21804;SDS011;11064;47.102;15.452;2022-11-11T08:18:20;26.50;;;17.38;;
21804;SDS011;11064;47.102;15.452;2022-11-11T08:20:46;22.92;;;15.80;;
21804;SDS011;11064;47.102;15.452;2022-11-11T08:23:12;22.95;;;16.00;;
21804;SDS011;11064;47.102;15.452;2022-11-11T08:25:41;22.88;;;15.48;;
21804;SDS011;11064;47.102;15.452;2022-11-11T08:28:06;22.02;;;15.65;;
21804;SDS011;11064;47.102;15.452;2022-11-11T08:30:33;23.60;;;16.60;;
21804;SDS011;11064;47.102;15.452;2022-11-11T08:33:00;21.25;;;16.15;;
21804;SDS011;11064;47.102;15.452;2022-11-11T08:35:28;22.50;;;15.25;;
21804;SDS011;11064;47.102;15.452;2022-11-11T08:37:54;22.77;;;14.55;;
21804;SDS011;11064;47.102;15.452;2022-11-11T08:40:20;20.65;;;14.93;;
21804;SDS011;11064;47.102;15.452;2022-11-11T08:42:46;19.08;;;14.77;;
21804;SDS011;11064;47.102;15.452;2022-11-11T08:45:12;20.75;;;15.07;;
21804;SDS011;11064;47.102;15.452;2022-11-11T08:47:38;19.52;;;14.73;;
21804;SDS011;11064;47.102;15.452;2022-11-11T08:50:05;18.83;;;13.77;;
21804;SDS011;11064;47.102;15.452;2022-11-11T08:52:31;21.33;;;14.82;;
21804;SDS011;11064;47.102;15.452;2022-11-11T08:54:57;16.95;;;13.52;;
21804;SDS011;11064;47.102;15.452;2022-11-11T08:57:25;15.90;;;11.93;;
21804;SDS011;11064;47.102;15.452;2022-11-11T08:59:51;15.93;;;11.88;;
21804;SDS011;11064;47.102;15.452;2022-11-11T09:02:17;15.13;;;12.45;;
21804;SDS011;11064;47.102;15.452;2022-11-11T09:04:43;16.80;;;12.45;;
21804;SDS011;11064;47.102;15.452;2022-11-11T09:07:09;14.57;;;11.73;;
21804;SDS011;11064;47.102;15.452;2022-11-11T09:09:36;16.63;;;11.52;;
21804;SDS011;11064;47.102;15.452;2022-11-11T09:12:02;14.18;;;11.32;;
21804;SDS011;11064;47.102;15.452;2022-11-11T09:14:28;13.82;;;11.40;;
21804;SDS011;11064;47.102;15.452;2022-11-11T09:16:54;13.95;;;10.90;;
21804;SDS011;11064;47.102;15.452;2022-11-11T09:19:20;14.88;;;11.05;;
21804;SDS011;11064;47.102;15.452;2022-11-11T09:21:46;14.02;;;11.45;;
21804;SDS011;11064;47.102;15.452;2022-11-11T09:24:12;13.63;;;10.95;;
21804;SDS011;11064;47.102;15.452;2022-11-11T09:26:38;16.02;;;10.43;;
21804;SDS011;11064;47.102;15.452;2022-11-11T09:29:04;13.77;;;10.00;;
21804;SDS011;11064;47.102;15.452;2022-11-11T09:31:30;13.30;;;10.18;;
21804;SDS011;11064;47.102;15.452;2022-11-11T09:33:56;12.70;;;9.75;;
21804;SDS011;11064;47.102;15.452;2022-11-11T09:36:21;13.40;;;9.60;;
21804;SDS011;11064;47.102;15.452;2022-11-11T09:38:47;10.65;;;9.10;;
21804;SDS011;11064;47.102;15.452;2022-11-11T09:44:00;11.57;;;9.63;;
21804;SDS011;11064;47.102;15.452;2022-11-11T09:49:22;10.88;;;9.23;;
21804;SDS011;11064;47.102;15.452;2022-11-11T09:51:54;12.02;;;8.73;;
21804;SDS011;11064;47.102;15.452;2022-11-11T09:54:32;10.57;;;8.25;;
21804;SDS011;11064;47.102;15.452;2022-11-11T09:57:02;10.85;;;8.27;;
21804;SDS011;11064;47.102;15.452;2022-11-11T09:59:42;10.93;;;8.50;;
21804;SDS011;11064;47.102;15.452;2022-11-11T10:07:39;8.57;;;6.93;;
21804;SDS011;11064;47.102;15.452;2022-11-11T10:10:16;8.60;;;7.22;;
21804;SDS011;11064;47.102;15.452;2022-11-11T10:12:49;10.25;;;7.32;;
21804;SDS011;11064;47.102;15.452;2022-11-11T10:15:21;7.88;;;7.00;;
21804;SDS011;11064;47.102;15.452;2022-11-11T10:20:53;10.20;;;6.72;;
21804;SDS011;11064;47.102;15.452;2022-11-11T10:23:24;17.45;;;6.90;;
21804;SDS011;11064;47.102;15.452;2022-11-11T10:25:56;7.68;;;6.40;;
21804;SDS011;11064;47.102;15.452;2022-11-11T10:28:34;9.27;;;6.28;;
21804;SDS011;11064;47.102;15.452;2022-11-11T10:31:05;8.57;;;6.78;;
21804;SDS011;11064;47.102;15.452;2022-11-11T10:36:28;6.95;;;6.05;;
21804;SDS011;11064;47.102;15.452;2022-11-11T10:38:57;8.45;;;6.13;;
21804;SDS011;11064;47.102;15.452;2022-11-11T10:41:32;8.13;;;6.18;;
21804;SDS011;11064;47.102;15.452;2022-11-11T10:44:21;8.68;;;5.90;;
21804;SDS011;11064;47.102;15.452;2022-11-11T10:49:58;8.32;;;6.63;;
21804;SDS011;11064;47.102;15.452;2022-11-11T11:03:24;6.30;;;5.65;;
21804;SDS011;11064;47.102;15.452;2022-11-11T11:06:32;9.65;;;6.30;;
21804;SDS011;11064;47.102;15.452;2022-11-11T11:14:33;8.20;;;6.30;;
21804;SDS011;11064;47.102;15.452;2022-11-11T11:17:07;9.93;;;6.10;;
21804;SDS011;11064;47.102;15.452;2022-11-11T11:19:39;8.70;;;6.70;;
21804;SDS011;11064;47.102;15.452;2022-11-11T11:22:05;8.95;;;6.13;;
21804;SDS011;11064;47.102;15.452;2022-11-11T11:24:31;10.68;;;7.45;;
21804;SDS011;11064;47.102;15.452;2022-11-11T11:27:01;9.80;;;7.43;;
21804;SDS011;11064;47.102;15.452;2022-11-11T11:29:30;15.73;;;8.82;;
21804;SDS011;11064;47.102;15.452;2022-11-11T11:32:12;13.70;;;8.15;;
21804;SDS011;11064;47.102;15.452;2022-11-11T11:37:07;17.25;;;9.60;;
21804;SDS011;11064;47.102;15.452;2022-11-11T11:39:34;14.65;;;8.30;;
21804;SDS011;11064;47.102;15.452;2022-11-11T11:42:00;11.48;;;7.75;;
21804;SDS011;11064;47.102;15.452;2022-11-11T11:47:16;11.13;;;8.52;;
21804;SDS011;11064;47.102;15.452;2022-11-11T11:52:42;14.95;;;8.85;;
21804;SDS011;11064;47.102;15.452;2022-11-11T11:55:30;10.55;;;7.57;;
21804;SDS011;11064;47.102;15.452;2022-11-11T12:01:09;11.02;;;8.25;;
21804;SDS011;11064;47.102;15.452;2022-11-11T12:06:28;11.20;;;7.88;;
21804;SDS011;11064;47.102;15.452;2022-11-11T12:11:59;11.57;;;8.70;;
21804;SDS011;11064;47.102;15.452;2022-11-11T12:14:47;12.57;;;8.73;;
21804;SDS011;11064;47.102;15.452;2022-11-11T12:17:47;13.73;;;8.15;;
21804;SDS011;11064;47.102;15.452;2022-11-11T12:23:15;9.68;;;7.70;;
21804;SDS011;11064;47.102;15.452;2022-11-11T12:25:51;10.15;;;7.07;;
21804;SDS011;11064;47.102;15.452;2022-11-11T12:34:03;11.82;;;7.47;;
21804;SDS011;11064;47.102;15.452;2022-11-11T12:37:14;12.35;;;7.53;;
21804;SDS011;11064;47.102;15.452;2022-11-11T12:42:52;12.82;;;8.23;;
21804;SDS011;11064;47.102;15.452;2022-11-11T12:45:27;18.45;;;8.52;;
21804;SDS011;11064;47.102;15.452;2022-11-11T12:48:04;12.98;;;8.15;;
21804;SDS011;11064;47.102;15.452;2022-11-11T12:50:53;12.15;;;7.50;;
21804;SDS011;11064;47.102;15.452;2022-11-11T12:53:51;11.27;;;6.72;;
21804;SDS011;11064;47.102;15.452;2022-11-11T13:15:48;7.85;;;5.53;;
21804;SDS011;11064;47.102;15.452;2022-11-11T13:18:18;7.35;;;5.78;;
21804;SDS011;11064;47.102;15.452;2022-11-11T13:20:52;8.07;;;5.32;;
21804;SDS011;11064;47.102;15.452;2022-11-11T13:23:24;11.20;;;6.18;;
21804;SDS011;11064;47.102;15.452;2022-11-11T13:25:52;6.57;;;5.63;;
21804;SDS011;11064;47.102;15.452;2022-11-11T13:28:33;8.48;;;5.82;;
21804;SDS011;11064;47.102;15.452;2022-11-11T13:34:01;7.03;;;5.60;;
21804;SDS011;11064;47.102;15.452;2022-11-11T13:36:31;8.10;;;5.72;;
21804;SDS011;11064;47.102;15.452;2022-11-11T13:42:24;7.50;;;5.25;;
21804;SDS011;11064;47.102;15.452;2022-11-11T13:44:53;8.18;;;5.25;;
21804;SDS011;11064;47.102;15.452;2022-11-11T13:47:23;6.28;;;5.00;;
21804;SDS011;11064;47.102;15.452;2022-11-11T13:53:05;7.65;;;5.00;;
21804;SDS011;11064;47.102;15.452;2022-11-11T13:55:40;6.78;;;4.95;;
21804;SDS011;11064;47.102;15.452;2022-11-11T14:01:05;7.85;;;4.97;;
21804;SDS011;11064;47.102;15.452;2022-11-11T14:13:51;9.80;;;4.88;;
21804;SDS011;11064;47.102;15.452;2022-11-11T14:19:25;6.30;;;5.18;;
21804;SDS011;11064;47.102;15.452;2022-11-11T14:21:54;6.13;;;4.60;;
21804;SDS011;11064;47.102;15.452;2022-11-11T14:24:30;6.50;;;5.00;;
21804;SDS011;11064;47.102;15.452;2022-11-11T14:27:24;8.45;;;4.82;;
21804;SDS011;11064;47.102;15.452;2022-11-11T14:29:55;7.00;;;4.60;;
21804;SDS011;11064;47.102;15.452;2022-11-11T14:38:02;6.50;;;5.07;;
21804;SDS011;11064;47.102;15.452;2022-11-11T14:46:03;16.33;;;9.18;;
21804;SDS011;11064;47.102;15.452;2022-11-11T14:54:32;23.33;;;12.80;;
21804;SDS011;11064;47.102;15.452;2022-11-11T15:02:37;23.73;;;14.05;;
21804;SDS011;11064;47.102;15.452;2022-11-11T15:05:15;26.13;;;14.18;;
21804;SDS011;11064;47.102;15.452;2022-11-11T15:08:19;26.17;;;15.20;;
21804;SDS011;11064;47.102;15.452;2022-11-11T15:16:24;29.00;;;15.70;;
21804;SDS011;11064;47.102;15.452;2022-11-11T15:21:34;25.23;;;16.48;;
21804;SDS011;11064;47.102;15.452;2022-11-11T15:24:27;29.30;;;16.63;;
21804;SDS011;11064;47.102;15.452;2022-11-11T15:30:17;26.75;;;16.40;;
21804;SDS011;11064;47.102;15.452;2022-11-11T15:32:55;25.08;;;16.58;;
21804;SDS011;11064;47.102;15.452;2022-11-11T15:35:45;29.60;;;16.52;;
21804;SDS011;11064;47.102;15.452;2022-11-11T15:38:16;26.27;;;16.92;;
21804;SDS011;11064;47.102;15.452;2022-11-11T15:40:47;30.08;;;16.60;;
21804;SDS011;11064;47.102;15.452;2022-11-11T15:43:19;28.98;;;17.65;;
21804;SDS011;11064;47.102;15.452;2022-11-11T15:45:55;27.83;;;17.98;;
21804;SDS011;11064;47.102;15.452;2022-11-11T15:48:32;30.50;;;18.38;;
21804;SDS011;11064;47.102;15.452;2022-11-11T15:51:14;29.88;;;18.45;;
21804;SDS011;11064;47.102;15.452;2022-11-11T15:53:40;33.85;;;18.33;;
21804;SDS011;11064;47.102;15.452;2022-11-11T15:56:07;34.08;;;18.73;;
21804;SDS011;11064;47.102;15.452;2022-11-11T15:58:33;29.85;;;17.73;;
21804;SDS011;11064;47.102;15.452;2022-11-11T16:01:04;26.83;;;17.17;;
21804;SDS011;11064;47.102;15.452;2022-11-11T16:06:03;29.00;;;18.58;;
21804;SDS011;11064;47.102;15.452;2022-11-11T16:08:32;31.17;;;19.02;;
21804;SDS011;11064;47.102;15.452;2022-11-11T16:10:59;29.83;;;19.02;;
21804;SDS011;11064;47.102;15.452;2022-11-11T16:16:00;36.15;;;18.85;;
21804;SDS011;11064;47.102;15.452;2022-11-11T16:18:32;31.38;;;19.13;;
21804;SDS011;11064;47.102;15.452;2022-11-11T16:23:50;37.55;;;20.05;;
21804;SDS011;11064;47.102;15.452;2022-11-11T16:26:17;33.78;;;20.40;;
21804;SDS011;11064;47.102;15.452;2022-11-11T16:28:47;34.45;;;20.70;;
21804;SDS011;11064;47.102;15.452;2022-11-11T16:33:50;37.35;;;21.70;;
21804;SDS011;11064;47.102;15.452;2022-11-11T16:36:16;33.08;;;19.70;;
21804;SDS011;11064;47.102;15.452;2022-11-11T16:38:42;29.65;;;18.40;;
21804;SDS011;11064;47.102;15.452;2022-11-11T16:41:25;32.70;;;18.23;;
21804;SDS011;11064;47.102;15.452;2022-11-11T16:43:52;28.65;;;16.60;;
21804;SDS011;11064;47.102;15.452;2022-11-11T16:46:53;22.98;;;13.77;;
21804;SDS011;11064;47.102;15.452;2022-11-11T16:49:18;21.08;;;14.27;;
21804;SDS011;11064;47.102;15.452;2022-11-11T16:51:58;22.23;;;13.90;;
21804;SDS011;11064;47.102;15.452;2022-11-11T16:54:50;17.20;;;11.82;;
21804;SDS011;11064;47.102;15.452;2022-11-11T16:57:25;16.60;;;11.23;;
21804;SDS011;11064;47.102;15.452;2022-11-11T16:59:54;19.08;;;10.77;;
21804;SDS011;11064;47.102;15.452;2022-11-11T17:02:30;15.50;;;10.75;;
21804;SDS011;11064;47.102;15.452;2022-11-11T17:04:57;13.95;;;10.25;;
21804;SDS011;11064;47.102;15.452;2022-11-11T17:07:26;15.45;;;9.77;;
21804;SDS011;11064;47.102;15.452;2022-11-11T17:10:14;15.80;;;10.18;;
21804;SDS011;11064;47.102;15.452;2022-11-11T17:12:47;14.25;;;9.70;;
21804;SDS011;11064;47.102;15.452;2022-11-11T17:15:16;15.00;;;9.70;;
21804;SDS011;11064;47.102;15.452;2022-11-11T17:17:46;17.35;;;9.63;;
21804;SDS011;11064;47.102;15.452;2022-11-11T17:20:16;15.98;;;9.52;;
21804;SDS011;11064;47.102;15.452;2022-11-11T17:22:54;17.38;;;10.00;;
21804;SDS011;11064;47.102;15.452;2022-11-11T17:25:21;18.27;;;9.82;;
21804;SDS011;11064;47.102;15.452;2022-11-11T17:27:47;14.50;;;9.73;;
21804;SDS011;11064;47.102;15.452;2022-11-11T17:30:13;14.07;;;9.30;;
21804;SDS011;11064;47.102;15.452;2022-11-11T17:32:39;15.63;;;9.05;;
21804;SDS011;11064;47.102;15.452;2022-11-11T17:35:06;15.50;;;8.80;;
21804;SDS011;11064;47.102;15.452;2022-11-11T17:37:33;12.25;;;8.15;;
21804;SDS011;11064;47.102;15.452;2022-11-11T17:40:02;12.15;;;8.60;;
21804;SDS011;11064;47.102;15.452;2022-11-11T17:42:30;13.93;;;8.95;;
21804;SDS011;11064;47.102;15.452;2022-11-11T17:44:56;14.82;;;9.57;;
21804;SDS011;11064;47.102;15.452;2022-11-11T17:47:22;16.67;;;9.90;;
21804;SDS011;11064;47.102;15.452;2022-11-11T17:49:48;15.50;;;9.80;;
21804;SDS011;11064;47.102;15.452;2022-11-11T17:52:14;14.75;;;9.45;;
21804;SDS011;11064;47.102;15.452;2022-11-11T17:54:41;16.52;;;9.88;;
21804;SDS011;11064;47.102;15.452;2022-11-11T17:57:06;16.15;;;9.38;;
21804;SDS011;11064;47.102;15.452;2022-11-11T17:59:32;13.00;;;9.05;;
21804;SDS011;11064;47.102;15.452;2022-11-11T18:01:58;13.93;;;9.60;;
21804;SDS011;11064;47.102;15.452;2022-11-11T18:04:26;12.95;;;8.85;;
21804;SDS011;11064;47.102;15.452;2022-11-11T18:06:52;13.43;;;8.80;;
21804;SDS011;11064;47.102;15.452;2022-11-11T18:09:18;13.23;;;9.50;;
21804;SDS011;11064;47.102;15.452;2022-11-11T18:11:45;12.57;;;9.18;;
21804;SDS011;11064;47.102;15.452;2022-11-11T18:14:13;12.73;;;8.40;;
21804;SDS011;11064;47.102;15.452;2022-11-11T18:16:42;14.32;;;9.10;;
21804;SDS011;11064;47.102;15.452;2022-11-11T18:19:09;13.10;;;8.60;;
21804;SDS011;11064;47.102;15.452;2022-11-11T18:21:35;15.20;;;9.55;;
21804;SDS011;11064;47.102;15.452;2022-11-11T18:24:04;12.63;;;9.02;;
21804;SDS011;11064;47.102;15.452;2022-11-11T18:26:31;15.98;;;9.38;;
21804;SDS011;11064;47.102;15.452;2022-11-11T18:28:57;13.98;;;8.80;;
21804;SDS011;11064;47.102;15.452;2022-11-11T18:31:24;15.00;;;8.90;;
21804;SDS011;11064;47.102;15.452;2022-11-11T18:33:50;13.38;;;8.63;;
21804;SDS011;11064;47.102;15.452;2022-11-11T18:36:17;13.20;;;9.07;;
21804;SDS011;11064;47.102;15.452;2022-11-11T18:38:44;17.75;;;11.15;;
21804;SDS011;11064;47.102;15.452;2022-11-11T18:41:12;13.27;;;8.88;;
21804;SDS011;11064;47.102;15.452;2022-11-11T18:43:44;12.18;;;9.02;;
21804;SDS011;11064;47.102;15.452;2022-11-11T18:46:12;17.52;;;8.68;;
21804;SDS011;11064;47.102;15.452;2022-11-11T18:48:43;15.07;;;9.15;;
21804;SDS011;11064;47.102;15.452;2022-11-11T18:51:11;13.85;;;8.25;;
21804;SDS011;11064;47.102;15.452;2022-11-11T18:53:39;14.57;;;8.68;;
21804;SDS011;11064;47.102;15.452;2022-11-11T18:56:09;15.38;;;8.77;;
21804;SDS011;11064;47.102;15.452;2022-11-11T18:58:47;13.02;;;8.10;;
21804;SDS011;11064;47.102;15.452;2022-11-11T19:01:15;12.48;;;8.20;;
21804;SDS011;11064;47.102;15.452;2022-11-11T19:04:02;12.32;;;8.40;;
21804;SDS011;11064;47.102;15.452;2022-11-11T19:06:30;13.10;;;8.48;;
21804;SDS011;11064;47.102;15.452;2022-11-11T19:08:59;13.15;;;8.40;;
21804;SDS011;11064;47.102;15.452;2022-11-11T19:11:29;22.20;;;12.18;;
21804;SDS011;11064;47.102;15.452;2022-11-11T19:13:58;21.10;;;11.65;;
21804;SDS011;11064;47.102;15.452;2022-11-11T19:16:24;20.20;;;13.15;;
21804;SDS011;11064;47.102;15.452;2022-11-11T19:18:51;34.13;;;19.02;;
21804;SDS011;11064;47.102;15.452;2022-11-11T19:21:19;18.73;;;12.77;;
21804;SDS011;11064;47.102;15.452;2022-11-11T19:23:47;19.35;;;11.38;;
21804;SDS011;11064;47.102;15.452;2022-11-11T19:26:15;12.30;;;8.65;;
21804;SDS011;11064;47.102;15.452;2022-11-11T19:28:42;12.45;;;8.63;;
21804;SDS011;11064;47.102;15.452;2022-11-11T19:31:10;11.68;;;7.43;;
21804;SDS011;11064;47.102;15.452;2022-11-11T19:33:40;13.80;;;8.27;;
21804;SDS011;11064;47.102;15.452;2022-11-11T19:36:08;11.13;;;7.72;;
21804;SDS011;11064;47.102;15.452;2022-11-11T19:38:35;11.35;;;7.47;;
21804;SDS011;11064;47.102;15.452;2022-11-11T19:41:09;14.30;;;7.35;;
21804;SDS011;11064;47.102;15.452;2022-11-11T19:43:39;12.57;;;6.65;;
21804;SDS011;11064;47.102;15.452;2022-11-11T19:46:07;11.52;;;7.53;;
21804;SDS011;11064;47.102;15.452;2022-11-11T19:48:36;9.77;;;7.05;;
21804;SDS011;11064;47.102;15.452;2022-11-11T19:51:02;10.98;;;7.05;;
21804;SDS011;11064;47.102;15.452;2022-11-11T19:53:29;13.50;;;7.32;;
21804;SDS011;11064;47.102;15.452;2022-11-11T19:55:56;14.02;;;8.00;;
21804;SDS011;11064;47.102;15.452;2022-11-11T19:58:26;13.63;;;9.38;;
21804;SDS011;11064;47.102;15.452;2022-11-11T20:00:53;12.15;;;7.63;;
21804;SDS011;11064;47.102;15.452;2022-11-11T20:03:19;13.45;;;6.93;;
21804;SDS011;11064;47.102;15.452;2022-11-11T20:05:48;10.75;;;7.10;;
21804;SDS011;11064;47.102;15.452;2022-11-11T20:08:17;13.02;;;7.38;;
21804;SDS011;11064;47.102;15.452;2022-11-11T20:10:44;10.27;;;7.13;;
21804;SDS011;11064;47.102;15.452;2022-11-11T20:13:11;10.45;;;6.90;;
21804;SDS011;11064;47.102;15.452;2022-11-11T20:15:37;12.30;;;7.80;;
21804;SDS011;11064;47.102;15.452;2022-11-11T20:18:03;12.48;;;7.45;;
21804;SDS011;11064;47.102;15.452;2022-11-11T20:20:29;12.35;;;7.40;;
21804;SDS011;11064;47.102;15.452;2022-11-11T20:22:55;14.20;;;7.75;;
21804;SDS011;11064;47.102;15.452;2022-11-11T20:25:21;10.38;;;6.93;;
21804;SDS011;11064;47.102;15.452;2022-11-11T20:27:47;16.45;;;8.23;;
21804;SDS011;11064;47.102;15.452;2022-11-11T20:30:13;11.65;;;7.47;;
21804;SDS011;11064;47.102;15.452;2022-11-11T20:32:39;12.88;;;7.80;;
21804;SDS011;11064;47.102;15.452;2022-11-11T20:35:05;13.10;;;7.13;;
21804;SDS011;11064;47.102;15.452;2022-11-11T20:37:32;11.80;;;7.25;;
21804;SDS011;11064;47.102;15.452;2022-11-11T20:39:58;11.30;;;7.57;;
21804;SDS011;11064;47.102;15.452;2022-11-11T20:42:23;13.82;;;7.70;;
21804;SDS011;11064;47.102;15.452;2022-11-11T20:44:49;12.35;;;7.47;;
21804;SDS011;11064;47.102;15.452;2022-11-11T20:47:15;11.13;;;8.13;;
21804;SDS011;11064;47.102;15.452;2022-11-11T20:49:41;11.25;;;7.35;;
21804;SDS011;11064;47.102;15.452;2022-11-11T20:52:08;10.73;;;7.18;;
21804;SDS011;11064;47.102;15.452;2022-11-11T20:54:36;11.60;;;6.57;;
21804;SDS011;11064;47.102;15.452;2022-11-11T20:57:03;10.85;;;6.82;;
21804;SDS011;11064;47.102;15.452;2022-11-11T20:59:28;12.27;;;7.18;;
21804;SDS011;11064;47.102;15.452;2022-11-11T21:01:54;12.50;;;8.18;;
21804;SDS011;11064;47.102;15.452;2022-11-11T21:04:20;11.25;;;7.70;;
21804;SDS011;11064;47.102;15.452;2022-11-11T21:06:46;11.63;;;7.35;;
21804;SDS011;11064;47.102;15.452;2022-11-11T21:09:12;10.90;;;7.50;;
21804;SDS011;11064;47.102;15.452;2022-11-11T21:11:38;11.25;;;7.50;;
21804;SDS011;11064;47.102;15.452;2022-11-11T21:14:04;11.35;;;7.20;;
21804;SDS011;11064;47.102;15.452;2022-11-11T21:16:32;12.95;;;7.60;;
21804;SDS011;11064;47.102;15.452;2022-11-11T21:18:58;12.73;;;7.65;;
21804;SDS011;11064;47.102;15.452;2022-11-11T21:21:28;15.10;;;7.30;;
21804;SDS011;11064;47.102;15.452;2022-11-11T21:23:56;14.50;;;7.90;;
21804;SDS011;11064;47.102;15.452;2022-11-11T21:26:24;14.90;;;9.32;;
21804;SDS011;11064;47.102;15.452;2022-11-11T21:28:51;13.60;;;8.55;;
21804;SDS011;11064;47.102;15.452;2022-11-11T21:31:19;12.68;;;8.48;;
21804;SDS011;11064;47.102;15.452;2022-11-11T21:36:16;12.70;;;7.93;;
21804;SDS011;11064;47.102;15.452;2022-11-11T21:38:43;10.73;;;7.28;;
21804;SDS011;11064;47.102;15.452;2022-11-11T21:41:13;12.60;;;8.15;;
21804;SDS011;11064;47.102;15.452;2022-11-11T21:43:44;12.15;;;7.68;;
21804;SDS011;11064;47.102;15.452;2022-11-11T21:46:11;12.20;;;8.02;;
21804;SDS011;11064;47.102;15.452;2022-11-11T21:48:39;12.15;;;7.38;;
21804;SDS011;11064;47.102;15.452;2022-11-11T21:53:39;17.15;;;7.70;;
21804;SDS011;11064;47.102;15.452;2022-11-11T21:56:11;10.43;;;7.38;;
21804;SDS011;11064;47.102;15.452;2022-11-11T21:58:38;11.32;;;7.18;;
21804;SDS011;11064;47.102;15.452;2022-11-11T22:01:06;11.00;;;7.13;;
21804;SDS011;11064;47.102;15.452;2022-11-11T22:03:37;13.43;;;8.32;;
21804;SDS011;11064;47.102;15.452;2022-11-11T22:06:05;14.30;;;8.07;;
21804;SDS011;11064;47.102;15.452;2022-11-11T22:08:32;10.48;;;7.20;;
21804;SDS011;11064;47.102;15.452;2022-11-11T22:11:10;14.15;;;7.53;;
21804;SDS011;11064;47.102;15.452;2022-11-11T22:13:41;10.27;;;7.10;;